createdAt,value
2022-10-05T00:01:43.775Z,72.18
2022-10-05T00:04:09.927Z,72.18
2022-10-05T00:06:36.457Z,72.26
2022-10-05T00:09:02.541Z,72.49
2022-10-05T00:11:28.634Z,72.26
2022-10-05T00:13:54.749Z,72.40
2022-10-05T00:16:20.940Z,72.46
2022-10-05T00:18:47.073Z,72.54
2022-10-05T00:21:13.265Z,72.71
2022-10-05T00:23:39.343Z,72.96
2022-10-05T00:26:05.445Z,72.96
2022-10-05T00:28:31.584Z,73.03
2022-10-05T00:30:57.706Z,72.85
2022-10-05T00:33:23.789Z,72.99
2022-10-05T00:35:49.893Z,72.80
2022-10-05T00:38:15.998Z,73.28
2022-10-05T00:40:42.080Z,73.00
2022-10-05T00:43:08.215Z,73.13
2022-10-05T00:45:34.354Z,73.26
2022-10-05T00:48:00.475Z,73.25
2022-10-05T00:50:26.607Z,73.55
2022-10-05T00:52:52.701Z,73.49
2022-10-05T00:55:18.789Z,73.27
2022-10-05T00:57:44.917Z,73.44
2022-10-05T01:00:11.009Z,73.24
2022-10-05T01:02:37.361Z,73.01
2022-10-05T01:05:03.531Z,73.44
2022-10-05T01:07:29.643Z,73.05
2022-10-05T01:09:55.730Z,73.04
2022-10-05T01:12:21.872Z,73.12
2022-10-05T01:14:47.966Z,73.13
2022-10-05T01:17:14.068Z,73.08
2022-10-05T01:19:40.176Z,73.35
2022-10-05T01:22:06.255Z,73.27
2022-10-05T01:24:32.328Z,73.26
2022-10-05T01:26:58.430Z,73.36
2022-10-05T01:29:24.525Z,73.41
2022-10-05T01:31:50.739Z,73.57
2022-10-05T01:34:17.072Z,73.36
2022-10-05T01:36:43.291Z,73.57
2022-10-05T01:39:09.518Z,73.29
2022-10-05T01:41:35.620Z,73.09
2022-10-05T01:44:01.711Z,73.25
2022-10-05T01:46:27.809Z,72.96
2022-10-05T01:48:53.926Z,72.91
2022-10-05T01:51:20.014Z,73.21
2022-10-05T01:53:46.110Z,72.76
2022-10-05T01:56:12.254Z,72.96
2022-10-05T01:58:38.357Z,73.00
2022-10-05T02:01:04.519Z,73.48
2022-10-05T02:03:30.654Z,73.19
2022-10-05T02:05:56.744Z,73.56
2022-10-05T02:08:22.830Z,73.27
2022-10-05T02:10:48.947Z,73.33
2022-10-05T02:13:15.035Z,73.33
2022-10-05T02:15:41.170Z,73.54
2022-10-05T02:18:07.345Z,73.47
2022-10-05T02:20:33.430Z,73.82
2022-10-05T02:22:59.555Z,73.69
2022-10-05T02:25:25.693Z,73.59
2022-10-05T02:27:51.776Z,73.86
2022-10-05T02:30:17.864Z,73.87
2022-10-05T02:32:43.969Z,73.85
2022-10-05T02:35:10.070Z,73.81
2022-10-05T02:37:36.176Z,73.79
2022-10-05T02:40:02.275Z,73.85
2022-10-05T02:42:28.362Z,73.71
2022-10-05T02:44:54.454Z,73.66
2022-10-05T02:47:20.556Z,73.80
2022-10-05T02:49:46.647Z,73.79
2022-10-05T02:52:12.786Z,73.88
2022-10-05T02:54:38.882Z,73.93
2022-10-05T02:57:04.983Z,73.96
2022-10-05T02:59:31.084Z,74.19
2022-10-05T03:01:57.247Z,74.16
2022-10-05T03:04:23.376Z,74.52
2022-10-05T03:06:49.548Z,74.34
2022-10-05T03:09:15.679Z,74.39
2022-10-05T03:11:41.768Z,74.45
2022-10-05T03:14:07.877Z,74.61
2022-10-05T03:16:34.473Z,74.66
2022-10-05T03:19:00.554Z,74.66
2022-10-05T03:21:26.641Z,75.12
2022-10-05T03:23:52.755Z,74.95
2022-10-05T03:26:18.864Z,74.66
2022-10-05T03:28:44.961Z,74.68
2022-10-05T03:31:11.155Z,74.70
2022-10-05T03:33:37.291Z,74.80
2022-10-05T03:36:03.381Z,74.87
2022-10-05T03:38:29.475Z,75.00
2022-10-05T03:40:55.549Z,75.05
2022-10-05T03:43:21.637Z,75.27
2022-10-05T03:45:47.804Z,75.32
2022-10-05T03:48:13.917Z,75.57
2022-10-05T03:50:40.029Z,75.38
2022-10-05T03:53:06.150Z,75.72
2022-10-05T03:55:32.244Z,75.57
2022-10-05T03:57:58.334Z,75.70
2022-10-05T04:00:24.550Z,75.89
2022-10-05T04:02:50.763Z,76.14
2022-10-05T04:05:16.915Z,75.93
2022-10-05T04:07:43.031Z,76.10
2022-10-05T04:10:09.128Z,76.09
2022-10-05T04:12:35.222Z,76.13
2022-10-05T04:15:01.369Z,76.09
2022-10-05T04:17:27.468Z,76.44
2022-10-05T04:19:53.567Z,76.31
2022-10-05T04:22:19.926Z,76.14
2022-10-05T04:24:46.011Z,76.50
2022-10-05T04:27:12.085Z,76.22
2022-10-05T04:29:38.188Z,76.60
2022-10-05T04:32:04.294Z,76.66
2022-10-05T04:34:30.397Z,76.39
2022-10-05T04:36:56.500Z,76.71
2022-10-05T04:39:22.609Z,76.75
2022-10-05T04:41:48.710Z,76.96
2022-10-05T04:44:14.822Z,76.89
2022-10-05T04:46:40.918Z,76.76
2022-10-05T04:49:07.062Z,77.02
2022-10-05T04:51:33.182Z,77.02
2022-10-05T04:53:59.273Z,77.14
2022-10-05T04:56:25.385Z,77.24
2022-10-05T04:58:51.960Z,77.38
2022-10-05T05:01:18.201Z,77.59
2022-10-05T05:03:44.395Z,77.55
2022-10-05T05:06:17.421Z,77.37
2022-10-05T05:08:44.238Z,77.64
2022-10-05T05:11:15.045Z,77.58
2022-10-05T05:13:42.382Z,77.81
2022-10-05T05:16:08.529Z,77.58
2022-10-05T05:18:34.684Z,77.73
2022-10-05T05:21:00.794Z,77.66
2022-10-05T05:23:26.879Z,78.14
2022-10-05T05:25:53.010Z,77.91
2022-10-05T05:28:19.203Z,78.07
2022-10-05T05:30:45.348Z,78.05
2022-10-05T05:33:11.555Z,77.87
2022-10-05T05:35:37.805Z,77.88
2022-10-05T05:38:03.900Z,78.09
2022-10-05T05:40:29.972Z,77.91
2022-10-05T05:42:56.101Z,78.14
2022-10-05T05:45:22.184Z,77.81
2022-10-05T05:47:48.346Z,77.46
2022-10-05T05:50:14.496Z,77.91
2022-10-05T05:52:40.573Z,77.93
2022-10-05T05:55:06.677Z,77.63
2022-10-05T05:57:32.786Z,77.80
2022-10-05T05:59:58.885Z,77.64
2022-10-05T06:02:25.084Z,77.80
2022-10-05T06:04:51.341Z,77.73
2022-10-05T06:07:17.416Z,77.49
2022-10-05T06:09:43.507Z,77.69
2022-10-05T06:12:09.618Z,77.61
2022-10-05T06:14:35.698Z,77.56
2022-10-05T06:17:01.780Z,77.48
2022-10-05T06:19:27.884Z,77.29
2022-10-05T06:21:53.996Z,77.05
2022-10-05T06:24:20.094Z,76.85
2022-10-05T06:26:47.235Z,77.05
2022-10-05T06:29:13.857Z,76.72
2022-10-05T06:31:40.005Z,76.64
2022-10-05T06:34:06.172Z,76.79
2022-10-05T06:36:32.280Z,76.58
2022-10-05T06:38:58.518Z,76.29
2022-10-05T06:41:24.669Z,76.10
2022-10-05T06:43:50.780Z,76.26
2022-10-05T06:46:17.084Z,76.18
2022-10-05T06:48:43.320Z,75.70
2022-10-05T06:51:09.419Z,75.67
2022-10-05T06:53:35.501Z,75.55
2022-10-05T06:56:01.744Z,75.50
2022-10-05T06:58:27.857Z,75.58
2022-10-05T07:00:56.340Z,75.51
2022-10-05T07:03:22.626Z,75.10
2022-10-05T07:05:48.954Z,75.24
2022-10-05T07:08:15.229Z,74.91
2022-10-05T07:10:41.658Z,75.07
2022-10-05T07:13:07.804Z,74.90
2022-10-05T07:15:33.903Z,74.89
2022-10-05T07:18:00.090Z,74.78
2022-10-05T07:20:26.274Z,74.81
2022-10-05T07:22:52.378Z,74.66
2022-10-05T07:25:18.686Z,74.64
2022-10-05T07:27:49.478Z,74.58
2022-10-05T07:30:17.800Z,74.43
2022-10-05T07:32:44.473Z,74.30
2022-10-05T07:35:10.561Z,74.28
2022-10-05T07:37:36.685Z,74.18
2022-10-05T07:40:02.808Z,73.98
2022-10-05T07:42:28.891Z,73.79
2022-10-05T07:44:54.969Z,73.78
2022-10-05T07:47:21.069Z,73.67
2022-10-05T07:49:47.183Z,73.66
2022-10-05T07:52:13.284Z,73.37
2022-10-05T07:54:39.417Z,73.36
2022-10-05T07:57:05.507Z,73.29
2022-10-05T07:59:31.583Z,72.98
2022-10-05T08:01:57.720Z,73.17
2022-10-05T08:04:23.824Z,72.93
2022-10-05T08:06:50.392Z,72.71
2022-10-05T08:09:16.757Z,72.62
2022-10-05T08:11:42.903Z,72.86
2022-10-05T08:14:09.007Z,72.53
2022-10-05T08:16:35.138Z,72.85
2022-10-05T08:19:01.423Z,72.78
2022-10-05T08:21:27.555Z,72.68
2022-10-05T08:23:53.730Z,72.46
2022-10-05T08:26:19.859Z,72.45
2022-10-05T08:28:45.952Z,72.45
2022-10-05T08:31:12.131Z,72.56
2022-10-05T08:33:38.257Z,72.51
2022-10-05T08:36:04.349Z,72.18
2022-10-05T08:38:30.468Z,72.29
2022-10-05T08:40:56.604Z,72.22
2022-10-05T08:43:22.695Z,72.41
2022-10-05T08:45:48.829Z,72.26
2022-10-05T08:48:15.127Z,72.18
2022-10-05T08:50:41.249Z,72.11
2022-10-05T08:53:07.368Z,72.14
2022-10-05T08:55:33.490Z,71.91
2022-10-05T08:57:59.578Z,72.06
2022-10-05T09:00:25.675Z,71.85
2022-10-05T09:02:51.866Z,71.75
2022-10-05T09:05:17.995Z,71.77
2022-10-05T09:07:44.106Z,71.60
2022-10-05T09:10:10.196Z,71.52
2022-10-05T09:12:36.294Z,71.67
2022-10-05T09:15:27.117Z,71.31
2022-10-05T09:17:48.469Z,71.54
2022-10-05T09:20:14.593Z,71.14
2022-10-05T09:22:40.697Z,71.19
2022-10-05T09:25:06.785Z,71.10
2022-10-05T09:27:32.896Z,71.16
2022-10-05T09:29:58.990Z,70.61
2022-10-05T09:32:25.078Z,70.48
2022-10-05T09:34:51.710Z,70.25
2022-10-05T09:37:17.815Z,69.86
2022-10-05T09:39:43.907Z,69.93
2022-10-05T09:42:10.308Z,69.58
2022-10-05T09:44:36.397Z,69.58
2022-10-05T09:47:02.490Z,69.21
2022-10-05T09:49:28.587Z,69.05
2022-10-05T09:51:54.691Z,69.24
2022-10-05T09:54:20.777Z,68.85
2022-10-05T09:56:47.108Z,68.40
2022-10-05T09:59:13.381Z,68.29
2022-10-05T10:01:39.517Z,68.14
2022-10-05T10:04:05.676Z,68.13
2022-10-05T10:06:31.767Z,67.78
2022-10-05T10:08:57.867Z,67.87
2022-10-05T10:11:23.999Z,67.70
2022-10-05T10:13:50.095Z,67.44
2022-10-05T10:16:16.292Z,67.31
2022-10-05T10:18:42.464Z,67.15
2022-10-05T10:21:08.546Z,67.13
2022-10-05T10:23:34.640Z,67.06
2022-10-05T10:26:00.774Z,66.86
2022-10-05T10:28:26.938Z,66.58
2022-10-05T10:30:53.152Z,66.42
2022-10-05T10:33:19.317Z,66.20
2022-10-05T10:35:45.421Z,66.05
2022-10-05T10:38:11.506Z,65.93
2022-10-05T10:40:37.610Z,65.56
2022-10-05T10:43:03.739Z,65.60
2022-10-05T10:45:29.832Z,65.20
2022-10-05T10:47:55.955Z,64.87
2022-10-05T10:50:22.070Z,64.82
2022-10-05T10:52:48.157Z,64.65
2022-10-05T10:55:14.267Z,64.44
2022-10-05T10:57:40.519Z,64.38
2022-10-05T11:00:06.670Z,64.35
2022-10-05T11:02:32.875Z,64.03
2022-10-05T11:04:59.080Z,63.82
2022-10-05T11:07:25.225Z,63.57
2022-10-05T11:09:51.353Z,63.16
2022-10-05T11:12:17.455Z,62.88
2022-10-05T11:14:43.533Z,62.52
2022-10-05T11:17:09.644Z,62.58
2022-10-05T11:19:40.197Z,62.44
2022-10-05T11:22:12.552Z,62.25
2022-10-05T11:24:38.628Z,62.15
2022-10-05T11:27:04.709Z,62.21
2022-10-05T11:29:30.831Z,62.29
2022-10-05T11:31:56.956Z,62.67
2022-10-05T11:34:23.091Z,62.76
2022-10-05T11:36:50.016Z,62.86
2022-10-05T11:39:16.121Z,62.67
2022-10-05T11:41:42.218Z,62.55
2022-10-05T11:44:08.320Z,62.68
2022-10-05T11:46:34.455Z,62.73
2022-10-05T11:49:00.581Z,62.83
2022-10-05T11:51:28.909Z,62.86
2022-10-05T11:53:55.209Z,63.05
2022-10-05T11:56:21.349Z,63.19
2022-10-05T11:58:47.461Z,63.33
2022-10-05T12:01:13.548Z,63.33
2022-10-05T12:03:39.747Z,63.39
2022-10-05T12:06:05.954Z,63.78
2022-10-05T12:08:32.039Z,63.77
2022-10-05T12:10:58.133Z,63.90
2022-10-05T12:13:24.235Z,63.88
2022-10-05T12:15:50.397Z,64.04
2022-10-05T12:18:16.532Z,64.04
2022-10-05T12:20:42.636Z,63.86
2022-10-05T12:23:08.731Z,63.97
2022-10-05T12:25:34.842Z,64.01
2022-10-05T12:28:01.004Z,63.95
2022-10-05T12:30:27.149Z,63.78
2022-10-05T12:32:55.834Z,64.03
2022-10-05T12:35:36.570Z,63.99
2022-10-05T12:38:10.332Z,64.08
2022-10-05T12:40:36.944Z,63.99
2022-10-05T12:43:03.039Z,63.98
2022-10-05T12:45:29.278Z,64.03
2022-10-05T12:47:55.448Z,63.92
2022-10-05T12:50:21.532Z,63.85
2022-10-05T12:52:47.685Z,63.61
2022-10-05T12:55:14.191Z,63.27
2022-10-05T12:57:40.280Z,63.43
2022-10-05T13:00:06.379Z,63.16
2022-10-05T13:02:32.566Z,63.25
2022-10-05T13:04:58.731Z,62.98
2022-10-05T13:07:24.857Z,63.01
2022-10-05T13:09:50.964Z,62.88
2022-10-05T13:12:17.053Z,62.81
2022-10-05T13:14:43.146Z,62.73
2022-10-05T13:17:09.272Z,62.73
2022-10-05T13:19:35.368Z,62.68
2022-10-05T13:22:01.668Z,62.36
2022-10-05T13:24:27.834Z,61.93
2022-10-05T13:26:53.933Z,61.56
2022-10-05T13:29:20.124Z,61.08
2022-10-05T13:31:46.288Z,61.12
2022-10-05T13:34:12.495Z,60.89
2022-10-05T13:36:38.671Z,60.82
2022-10-05T13:39:04.811Z,60.42
2022-10-05T13:41:30.908Z,60.23
2022-10-05T13:43:57.010Z,59.62
2022-10-05T13:46:23.240Z,58.96
2022-10-05T13:48:49.367Z,58.43
2022-10-05T13:51:15.825Z,57.78
2022-10-05T13:53:42.388Z,57.30
2022-10-05T13:56:08.479Z,56.84
2022-10-05T13:58:34.577Z,56.59
2022-10-05T14:01:00.703Z,56.07
2022-10-05T14:03:26.829Z,55.89
2022-10-05T14:05:55.708Z,55.34
2022-10-05T14:08:22.093Z,55.17
2022-10-05T14:10:48.179Z,54.70
2022-10-05T14:13:14.302Z,54.41
2022-10-05T14:15:42.424Z,54.09
2022-10-05T14:18:08.632Z,53.91
2022-10-05T14:20:34.729Z,53.72
2022-10-05T14:23:00.861Z,53.83
2022-10-05T14:25:27.154Z,53.66
2022-10-05T14:27:53.360Z,53.92
2022-10-05T14:30:19.682Z,54.04
2022-10-05T14:32:45.944Z,54.34
2022-10-05T14:35:12.101Z,54.59
2022-10-05T14:37:38.208Z,54.84
2022-10-05T14:40:04.296Z,55.05
2022-10-05T14:42:30.403Z,54.97
2022-10-05T14:44:56.513Z,54.91
2022-10-05T14:47:22.602Z,54.87
2022-10-05T14:49:48.713Z,54.40
2022-10-05T14:52:14.895Z,53.74
2022-10-05T14:54:41.001Z,53.26
2022-10-05T14:57:07.091Z,52.75
2022-10-05T14:59:33.557Z,52.08
2022-10-05T15:01:59.669Z,51.81
2022-10-05T15:04:25.845Z,51.57
2022-10-05T15:06:55.441Z,51.45
2022-10-05T15:09:22.403Z,51.14
2022-10-05T15:11:48.538Z,50.75
2022-10-05T15:14:14.646Z,50.15
2022-10-05T15:16:40.776Z,50.05
2022-10-05T15:19:07.286Z,49.77
2022-10-05T15:21:33.405Z,49.43
2022-10-05T15:23:59.525Z,48.95
2022-10-05T15:26:25.623Z,48.58
2022-10-05T15:28:51.735Z,47.80
2022-10-05T15:31:17.909Z,46.92
2022-10-05T15:33:44.075Z,46.28
2022-10-05T15:36:10.189Z,45.59
2022-10-05T15:38:36.287Z,45.28
2022-10-05T15:41:02.386Z,44.76
2022-10-05T15:43:28.485Z,44.55
2022-10-05T15:45:54.627Z,44.73
2022-10-05T15:48:21.068Z,44.65
2022-10-05T15:50:47.386Z,44.92
2022-10-05T15:53:13.472Z,45.13
2022-10-05T15:55:39.565Z,45.46
2022-10-05T15:58:05.672Z,45.95
2022-10-05T16:00:31.760Z,46.26
2022-10-05T16:02:57.842Z,46.65
2022-10-05T16:05:23.945Z,47.01
2022-10-05T16:07:50.028Z,47.29
2022-10-05T16:10:16.118Z,47.64
2022-10-05T16:12:42.217Z,48.24
2022-10-05T16:15:08.319Z,48.96
2022-10-05T16:17:34.404Z,49.85
2022-10-05T16:20:00.603Z,50.88
2022-10-05T16:22:26.712Z,51.40
2022-10-05T16:24:52.851Z,52.23
2022-10-05T16:27:18.964Z,52.84
2022-10-05T16:29:45.058Z,53.76
2022-10-05T16:32:11.146Z,54.48
2022-10-05T16:34:37.248Z,55.51
2022-10-05T16:37:03.337Z,56.25
2022-10-05T16:39:29.429Z,57.07
2022-10-05T16:41:55.539Z,57.35
2022-10-05T16:44:21.625Z,57.93
2022-10-05T16:46:47.772Z,58.51
2022-10-05T16:49:13.886Z,58.88
2022-10-05T16:51:39.973Z,59.54
2022-10-05T16:54:06.060Z,59.90
2022-10-05T16:56:32.194Z,60.26
2022-10-05T16:58:58.287Z,60.53
2022-10-05T17:01:24.431Z,61.07
2022-10-05T17:03:50.604Z,61.32
2022-10-05T17:06:16.707Z,61.86
2022-10-05T17:08:42.801Z,62.15
2022-10-05T17:11:10.524Z,62.40
2022-10-05T17:13:39.518Z,62.57
2022-10-05T17:16:05.660Z,63.12
2022-10-05T17:18:31.827Z,63.48
2022-10-05T17:20:58.073Z,63.63
2022-10-05T17:23:24.202Z,63.90
2022-10-05T17:25:50.339Z,64.40
2022-10-05T17:28:16.611Z,64.76
2022-10-05T17:30:42.818Z,65.14
2022-10-05T17:33:08.993Z,65.22
2022-10-05T17:35:35.221Z,65.23
2022-10-05T17:38:03.763Z,65.66
2022-10-05T17:40:29.856Z,66.00
2022-10-05T17:42:55.954Z,66.19
2022-10-05T17:45:22.066Z,66.42
2022-10-05T17:47:48.184Z,66.60
2022-10-05T17:50:14.327Z,67.02
2022-10-05T17:52:40.461Z,67.28
2022-10-05T17:55:06.564Z,67.52
2022-10-05T17:57:32.661Z,67.64
2022-10-05T17:59:58.740Z,67.74
2022-10-05T18:02:24.896Z,68.12
2022-10-05T18:04:51.019Z,68.05
2022-10-05T18:07:17.107Z,68.18
2022-10-05T18:09:43.237Z,68.48
2022-10-05T18:12:09.337Z,68.76
2022-10-05T18:14:35.433Z,68.91
2022-10-05T18:17:01.553Z,69.11
2022-10-05T18:19:27.644Z,69.29
2022-10-05T18:21:53.735Z,69.25
2022-10-05T18:24:19.982Z,69.50
2022-10-05T18:26:46.064Z,69.44
2022-10-05T18:29:12.149Z,69.66
2022-10-05T18:31:38.312Z,69.72
2022-10-05T18:34:04.469Z,69.54
2022-10-05T18:36:33.101Z,69.61
2022-10-05T18:39:03.059Z,69.48
2022-10-05T18:41:29.158Z,69.29
2022-10-05T18:43:55.282Z,69.23
2022-10-05T18:46:21.440Z,69.12
2022-10-05T18:48:47.608Z,68.87
2022-10-05T18:51:13.728Z,69.11
2022-10-05T18:53:39.855Z,69.07
2022-10-05T18:56:06.007Z,69.01
2022-10-05T18:58:32.115Z,68.88
2022-10-05T19:00:58.243Z,68.87
2022-10-05T19:03:24.342Z,68.64
2022-10-05T19:05:50.436Z,68.53
2022-10-05T19:08:16.552Z,68.41
2022-10-05T19:10:42.655Z,68.30
2022-10-05T19:13:08.748Z,68.14
2022-10-05T19:15:35.244Z,67.98
2022-10-05T19:18:01.426Z,67.67
2022-10-05T19:20:27.511Z,67.54
2022-10-05T19:22:53.642Z,67.56
2022-10-05T19:25:19.745Z,67.10
2022-10-05T19:27:45.838Z,67.08
2022-10-05T19:30:11.936Z,67.09
2022-10-05T19:32:38.028Z,67.03
2022-10-05T19:35:04.131Z,66.87
2022-10-05T19:37:30.258Z,66.81
2022-10-05T19:39:56.343Z,66.79
2022-10-05T19:42:22.450Z,66.82
2022-10-05T19:44:48.566Z,66.75
2022-10-05T19:47:14.738Z,66.73
2022-10-05T19:49:40.898Z,66.61
2022-10-05T19:52:07.065Z,66.54
2022-10-05T19:54:33.248Z,66.55
2022-10-05T19:56:59.418Z,66.47
2022-10-05T19:59:25.757Z,66.37
2022-10-05T20:01:51.905Z,66.17
2022-10-05T20:04:21.389Z,66.04
2022-10-05T20:06:47.522Z,65.88
2022-10-05T20:09:13.613Z,65.90
2022-10-05T20:11:39.860Z,65.84
2022-10-05T20:14:05.958Z,65.81
2022-10-05T20:16:32.460Z,65.60
2022-10-05T20:18:58.677Z,65.62
2022-10-05T20:21:25.309Z,65.60
2022-10-05T20:23:51.473Z,65.58
2022-10-05T20:26:17.586Z,65.59
2022-10-05T20:28:43.778Z,65.59
2022-10-05T20:31:10.068Z,65.62
2022-10-05T20:33:36.258Z,65.56
2022-10-05T20:36:02.511Z,65.61
2022-10-05T20:38:29.170Z,65.61
2022-10-05T20:40:55.531Z,65.67
2022-10-05T20:43:21.718Z,65.54
2022-10-05T20:45:47.813Z,65.67
2022-10-05T20:48:13.906Z,65.63
2022-10-05T20:50:40.142Z,65.51
2022-10-05T20:53:11.004Z,65.59
2022-10-05T20:55:38.165Z,65.63
2022-10-05T20:58:04.442Z,65.55
2022-10-05T21:00:33.948Z,65.44
2022-10-05T21:03:00.449Z,65.61
2022-10-05T21:05:26.694Z,65.63
2022-10-05T21:07:52.840Z,65.66
2022-10-05T21:10:18.939Z,65.58
2022-10-05T21:12:45.034Z,65.82
2022-10-05T21:15:11.133Z,65.74
2022-10-05T21:17:37.222Z,65.89
2022-10-05T21:20:03.329Z,65.89
2022-10-05T21:22:29.539Z,65.90
2022-10-05T21:24:55.679Z,66.00
2022-10-05T21:27:21.829Z,66.04
2022-10-05T21:29:50.058Z,65.89
2022-10-05T21:32:16.202Z,66.01
2022-10-05T21:34:42.345Z,66.12
2022-10-05T21:37:08.435Z,66.09
2022-10-05T21:39:34.592Z,66.20
2022-10-05T21:42:00.779Z,66.20
2022-10-05T21:44:26.966Z,66.04
2022-10-05T21:46:53.253Z,66.04
2022-10-05T21:49:19.852Z,66.16
2022-10-05T21:51:46.216Z,66.18
2022-10-05T21:54:12.313Z,66.29
2022-10-05T21:56:38.438Z,66.32
2022-10-05T21:59:08.131Z,66.76
2022-10-05T22:01:34.397Z,66.99
2022-10-05T22:04:00.859Z,67.22
2022-10-05T22:06:26.977Z,67.62
2022-10-05T22:08:53.203Z,67.92
2022-10-05T22:11:19.555Z,68.08
2022-10-05T22:13:45.768Z,68.44
2022-10-05T22:16:11.952Z,68.52
2022-10-05T22:18:38.265Z,68.68
2022-10-05T22:21:04.744Z,68.75
2022-10-05T22:23:30.863Z,68.56
2022-10-05T22:25:57.607Z,68.67
2022-10-05T22:28:23.777Z,68.82
2022-10-05T22:30:50.081Z,68.88
2022-10-05T22:33:16.413Z,68.85
2022-10-05T22:35:42.553Z,68.88
2022-10-05T22:38:08.648Z,68.92
2022-10-05T22:40:34.752Z,68.99
2022-10-05T22:43:00.839Z,69.15
2022-10-05T22:45:31.667Z,69.48
2022-10-05T22:47:58.617Z,69.82
2022-10-05T22:50:24.707Z,70.07
2022-10-05T22:52:50.797Z,70.67
2022-10-05T22:55:16.917Z,72.03
2022-10-05T22:57:43.009Z,74.55
2022-10-05T23:00:09.106Z,76.83
2022-10-05T23:02:35.235Z,78.88
2022-10-05T23:05:01.385Z,79.66
2022-10-05T23:07:27.470Z,80.67
2022-10-05T23:09:53.586Z,80.97
2022-10-05T23:12:19.678Z,81.09
2022-10-05T23:14:45.777Z,80.94
2022-10-05T23:17:11.881Z,80.88
2022-10-05T23:19:37.972Z,80.51
2022-10-05T23:22:04.061Z,80.48
2022-10-05T23:24:30.168Z,80.04
2022-10-05T23:26:56.260Z,79.72
2022-10-05T23:29:22.349Z,79.46
2022-10-05T23:31:48.769Z,79.57
2022-10-05T23:34:14.852Z,79.33
2022-10-05T23:36:40.936Z,79.10
2022-10-05T23:39:07.042Z,79.12
2022-10-05T23:41:33.171Z,79.24
2022-10-05T23:43:59.292Z,79.34
2022-10-05T23:46:25.459Z,79.35
2022-10-05T23:48:51.575Z,79.65
2022-10-05T23:51:17.655Z,80.28
2022-10-05T23:53:43.759Z,80.84
2022-10-05T23:56:09.857Z,81.49
2022-10-05T23:58:35.958Z,81.82
